Time;durP1;ratioP1;P1;durP2;ratioP2;P2;SDS_P1;SDS_P2;PMS_P1;PMS_P2;Temp;Humidity;BMP_temperature;BMP_pressure;BME280_temperature;BME280_humidity;BME280_pressure;Samples;Min_cycle;Max_cycle;Signal;HPM_P1;HPM_P2
2023/04/06 00:01:30;;;;;;;;;;;;;;;;;;6196160;23;20370;-86
2023/04/06 00:03:57;;;;;;;;;;;;;;;;;;6197008;23;19930;-86
2023/04/06 00:06:24;;;;;;;;;;;;;;;;;;6171242;23;19926;-88
2023/04/06 00:08:51;;;;;;;;;;;;;;;;;;6196624;23;20714;-85
2023/04/06 00:11:19;;;;;;;;;;;;;;;;;;6195820;23;19919;-87
2023/04/06 00:13:47;;;;;;;;;;;;;;;;;;6169663;23;19926;-85
2023/04/06 00:16:14;;;;;;;;;;;;;;;;;;6173980;23;20262;-85
2023/04/06 00:18:45;;;;;;;;;;;;;;;;;;6170380;23;19924;-86
2023/04/06 00:21:15;;;;;;;;;;;;;;;;;;6171661;23;20347;-86
2023/04/06 00:23:47;;;;;;;;;;;;;;;;;;6173618;23;19927;-87
2023/04/06 00:26:14;;;;;;;;;;;;;;;;;;6170841;23;19926;-87
2023/04/06 00:28:46;;;;;;;;;;;;;;;;;;6232767;23;20374;-87
2023/04/06 00:31:14;;;;;;;;;;;;;;;;;;6173103;23;19926;-87
2023/04/06 00:33:49;;;;;;;;;;;;;;;;;;6194670;23;19920;-84
2023/04/06 00:36:20;;;;;;;;;;;;;;;;;;6193800;23;19927;-85
2023/04/06 00:38:49;;;;;;;;;;;;;;;;;;6194410;23;19927;-85
2023/04/06 00:41:21;;;;;;;;;;;;;;;;;;6192922;23;19920;-85
2023/04/06 00:43:48;;;;;;;;;;;;;;;;;;6167014;23;19927;-86
2023/04/06 00:46:15;;;;;;;;;;;;;;;;;;6169155;23;19926;-85
2023/04/06 00:48:45;;;;;;;;;;;;;;;;;;6168218;23;19920;-86
2023/04/06 00:51:12;;;;;;;;;;;;;;;;;;6194870;23;19920;-85
2023/04/06 00:53:41;;;;;;;;;;;;;;;;;;6167958;23;19934;-87
2023/04/06 00:56:10;;;;;;;;;;;;;;;;;;6203285;23;19927;-86
2023/04/06 00:58:49;;;;;;;;;;;;;;;;;;6146397;23;19920;-87
2023/04/06 01:01:18;;;;;;;;;;;;;;;;;;6167728;23;19927;-87
2023/04/06 01:03:49;;;;;;;;;;;;;;;;;;6196731;23;19930;-87
2023/04/06 01:06:18;;;;;;;;;;;;;;;;;;6167958;23;19920;-85
2023/04/06 01:08:55;;;;;;;;;;;;;;;;;;6202881;23;19920;-87
2023/04/06 01:11:25;;;;;;;;;;;;;;;;;;6204681;23;19920;-87
2023/04/06 01:13:53;;;;;;;;;;;;;;;;;;6167986;23;19930;-87
2023/04/06 01:16:30;;;;;;;;;;;;;;;;;;6193924;23;19920;-86
2023/04/06 01:19:08;;;;;;;;;;;;;;;;;;6169156;23;19920;-86
2023/04/06 01:21:36;;;;;;;;;;;;;;;;;;6168969;23;19942;-85
2023/04/06 01:24:25;;;;;;;;;;;;;;;;;;6134250;23;19924;-84
2023/04/06 01:27:07;;;;;;;;;;;;;;;;;;6169820;23;19920;-84
2023/04/06 01:30:00;;;;;;;;;;;;;;;;;;6180682;23;19926;-86
2023/04/06 01:32:54;;;;;;;;;;;;;;;;;;6168418;23;19920;-85
2023/04/06 01:35:44;;;;;;;;;;;;;;;;;;6207014;23;19920;-85
2023/04/06 01:38:16;;;;;;;;;;;;;;;;;;6165701;23;19920;-85
2023/04/06 01:40:46;;;;;;;;;;;;;;;;;;6166434;23;19927;-86
2023/04/06 01:43:19;;;;;;;;;;;;;;;;;;6166590;23;19927;-86
2023/04/06 01:45:59;;;;;;;;;;;;;;;;;;6201642;23;19919;-84
2023/04/06 01:48:35;;;;;;;;;;;;;;;;;;6166908;23;19920;-87
2023/04/06 01:51:10;;;;;;;;;;;;;;;;;;6180594;23;19927;-85
2023/04/06 01:53:48;;;;;;;;;;;;;;;;;;6177938;23;19935;-85
2023/04/06 01:56:20;;;;;;;;;;;;;;;;;;6169296;23;20414;-86
2023/04/06 01:58:58;;;;;;;;;;;;;;;;;;6168035;23;19920;-85
2023/04/06 02:01:28;;;;;;;;;;;;;;;;;;6169766;23;20374;-86
2023/04/06 02:03:57;;;;;;;;;;;;;;;;;;6167455;23;19923;-86
2023/04/06 02:06:26;;;;;;;;;;;;;;;;;;6170773;23;19930;-86
2023/04/06 02:09:02;;;;;;;;;;;;;;;;;;6192452;23;19920;-87
2023/04/06 02:11:34;;;;;;;;;;;;;;;;;;6166528;23;19919;-86
2023/04/06 02:14:01;;;;;;;;;;;;;;;;;;6165101;23;19920;-86
2023/04/06 02:16:32;;;;;;;;;;;;;;;;;;6165691;23;19920;-87
2023/04/06 02:18:59;;;;;;;;;;;;;;;;;;6190113;23;20343;-86
2023/04/06 02:21:26;;;;;;;;;;;;;;;;;;6164853;23;19939;-86
2023/04/06 02:23:54;;;;;;;;;;;;;;;;;;6188839;23;20117;-85
2023/04/06 02:26:25;;;;;;;;;;;;;;;;;;6165719;23;19934;-84
2023/04/06 02:28:53;;;;;;;;;;;;;;;;;;6166025;23;19927;-86
2023/04/06 02:31:21;;;;;;;;;;;;;;;;;;6190202;23;19920;-86
2023/04/06 02:33:48;;;;;;;;;;;;;;;;;;6164437;23;19927;-87
2023/04/06 02:36:17;;;;;;;;;;;;;;;;;;6193219;23;20463;-87
2023/04/06 02:38:44;;;;;;;;;;;;;;;;;;6168038;23;19924;-86
2023/04/06 02:41:12;;;;;;;;;;;;;;;;;;6170375;23;19938;-86
2023/04/06 02:43:41;;;;;;;;;;;;;;;;;;6168772;23;19920;-87
2023/04/06 02:46:24;;;;;;;;;;;;;;;;;;6167512;23;19924;-86
2023/04/06 02:48:52;;;;;;;;;;;;;;;;;;6167456;23;20383;-87
2023/04/06 02:51:19;;;;;;;;;;;;;;;;;;6166324;23;20267;-87
2023/04/06 02:53:51;;;;;;;;;;;;;;;;;;6165343;23;19923;-84
2023/04/06 02:56:20;;;;;;;;;;;;;;;;;;6166755;23;19919;-86
2023/04/06 02:58:51;;;;;;;;;;;;;;;;;;6200608;23;20255;-86
2023/04/06 03:01:23;;;;;;;;;;;;;;;;;;6178059;23;19920;-86
2023/04/06 03:03:58;;;;;;;;;;;;;;;;;;6167252;23;19920;-87
2023/04/06 03:06:27;;;;;;;;;;;;;;;;;;6192693;23;19920;-87
2023/04/06 03:09:00;;;;;;;;;;;;;;;;;;6203682;23;19920;-87
2023/04/06 03:11:27;;;;;;;;;;;;;;;;;;6167848;23;19943;-88
2023/04/06 03:13:55;;;;;;;;;;;;;;;;;;6200595;23;20155;-88
2023/04/06 03:16:22;;;;;;;;;;;;;;;;;;6218492;23;19920;-85
2023/04/06 03:18:49;;;;;;;;;;;;;;;;;;6168212;23;19920;-87
2023/04/06 03:21:20;;;;;;;;;;;;;;;;;;6169160;23;19926;-87
2023/04/06 03:23:52;;;;;;;;;;;;;;;;;;6198668;23;19920;-86
2023/04/06 03:26:19;;;;;;;;;;;;;;;;;;6164019;23;20347;-87
2023/04/06 03:28:46;;;;;;;;;;;;;;;;;;6199721;23;19927;-85
2023/04/06 03:31:20;;;;;;;;;;;;;;;;;;6165825;23;19927;-85
2023/04/06 03:33:56;;;;;;;;;;;;;;;;;;6165449;23;19920;-87
2023/04/06 03:36:32;;;;;;;;;;;;;;;;;;6165614;23;19920;-85
2023/04/06 03:39:04;;;;;;;;;;;;;;;;;;6190049;23;19920;-85
2023/04/06 03:41:35;;;;;;;;;;;;;;;;;;6164142;23;19920;-85
2023/04/06 03:44:09;;;;;;;;;;;;;;;;;;6166098;23;19927;-87
2023/04/06 03:46:39;;;;;;;;;;;;;;;;;;6166599;23;19923;-88
2023/04/06 03:49:13;;;;;;;;;;;;;;;;;;6166483;23;19920;-85
2023/04/06 03:51:47;;;;;;;;;;;;;;;;;;6166017;23;19920;-87
2023/04/06 03:54:14;;;;;;;;;;;;;;;;;;6190883;23;20270;-87
2023/04/06 03:56:44;;;;;;;;;;;;;;;;;;6167034;23;19920;-85
2023/04/06 03:59:14;;;;;;;;;;;;;;;;;;6166688;23;19927;-86
2023/04/06 04:01:44;;;;;;;;;;;;;;;;;;6168001;23;19920;-86
2023/04/06 05:07:44;;;;;;;;;;;;;;;;;;6158389;23;19936;-90
2023/04/06 05:10:19;;;;;;;;;;;;;;;;;;6136935;23;19928;-90
2023/04/06 05:12:58;;;;;;;;;;;;;;;;;;6161855;23;20240;-92
2023/04/06 05:15:31;;;;;;;;;;;;;;;;;;6142812;23;19921;-88
2023/04/06 05:18:05;;;;;;;;;;;;;;;;;;6108016;23;19921;-90
2023/04/06 05:20:45;;;;;;;;;;;;;;;;;;6136907;23;19927;-91
2023/04/06 05:23:16;;;;;;;;;;;;;;;;;;6111587;23;20360;-88
2023/04/06 05:25:45;;;;;;;;;;;;;;;;;;6158994;23;19911;-89
2023/04/06 05:28:21;;;;;;;;;;;;;;;;;;6132377;23;19925;-91
2023/04/06 05:30:51;;;;;;;;;;;;;;;;;;6106818;23;19921;-90
2023/04/06 05:33:26;;;;;;;;;;;;;;;;;;6104582;23;19920;-91
2023/04/06 05:36:22;;;;;;;;;;;;;;;;;;6110624;23;19928;-89
2023/04/06 05:38:55;;;;;;;;;;;;;;;;;;6104875;23;19927;-90
2023/04/06 05:41:36;;;;;;;;;;;;;;;;;;6105316;23;19927;-90
2023/04/06 05:44:28;;;;;;;;;;;;;;;;;;6155721;23;19920;-90
2023/04/06 05:56:31;;;;;;;;;;;;;;;;;;6129094;23;19921;-91
2023/04/06 05:59:26;;;;;;;;;;;;;;;;;;6105262;23;20272;-92
2023/04/06 06:02:05;;;;;;;;;;;;;;;;;;6105172;23;19921;-89
2023/04/06 10:05:52;;;;;;;;;;;;;;;;;;6185894;23;19920;-87
2023/04/06 10:08:21;;;;;;;;;;;;;;;;;;6168587;23;19927;-87
2023/04/06 10:10:49;;;;;;;;;;;;;;;;;;6139486;23;20351;-88
2023/04/06 10:13:18;;;;;;;;;;;;;;;;;;6138269;23;20275;-89
2023/04/06 10:15:48;;;;;;;;;;;;;;;;;;6134501;23;19931;-89
2023/04/06 10:18:22;;;;;;;;;;;;;;;;;;6110936;23;19921;-88
2023/04/06 10:20:50;;;;;;;;;;;;;;;;;;6162107;23;20252;-88
2023/04/06 10:23:23;;;;;;;;;;;;;;;;;;6171940;23;19928;-88
2023/04/06 10:25:53;;;;;;;;;;;;;;;;;;6159960;23;19996;-88
2023/04/06 10:28:21;;;;;;;;;;;;;;;;;;6108855;23;19921;-89
2023/04/06 10:30:48;;;;;;;;;;;;;;;;;;6110353;23;19920;-88
2023/04/06 10:33:16;;;;;;;;;;;;;;;;;;6135447;23;19920;-88
2023/04/06 10:35:44;;;;;;;;;;;;;;;;;;6135509;23;19927;-87
2023/04/06 10:38:13;;;;;;;;;;;;;;;;;;6111932;23;19927;-88
2023/04/06 10:40:46;;;;;;;;;;;;;;;;;;6113001;23;19921;-89
2023/04/06 10:43:15;;;;;;;;;;;;;;;;;;6160768;23;19920;-89
2023/04/06 10:45:43;;;;;;;;;;;;;;;;;;6112286;23;19927;-88
2023/04/06 10:48:14;;;;;;;;;;;;;;;;;;6135401;23;19921;-90
2023/04/06 10:50:43;;;;;;;;;;;;;;;;;;6161115;23;19928;-88
2023/04/06 10:53:11;;;;;;;;;;;;;;;;;;6112087;23;19920;-90
2023/04/06 10:55:42;;;;;;;;;;;;;;;;;;6136272;23;19927;-88
2023/04/06 10:58:11;;;;;;;;;;;;;;;;;;6110556;23;19924;-89
2023/04/06 11:00:44;;;;;;;;;;;;;;;;;;6161784;23;19946;-89
2023/04/06 11:03:11;;;;;;;;;;;;;;;;;;6161254;23;20347;-88
2023/04/06 11:05:39;;;;;;;;;;;;;;;;;;6162238;23;19929;-88
2023/04/06 11:08:06;;;;;;;;;;;;;;;;;;6106511;23;19936;-89
2023/04/06 11:10:40;;;;;;;;;;;;;;;;;;6109260;23;19920;-90
2023/04/06 16:03:58;;;;;;;;;;;;;;;;;;6182605;23;20363;-91
2023/04/06 16:06:41;;;;;;;;;;;;;;;;;;6190189;23;19931;-90
2023/04/06 16:12:02;;;;;;;;;;;;;;;;;;6187050;23;19927;-90
2023/04/06 16:14:31;;;;;;;;;;;;;;;;;;6140131;23;19920;-91
2023/04/06 16:17:06;;;;;;;;;;;;;;;;;;6191660;23;19927;-91
2023/04/06 16:19:41;;;;;;;;;;;;;;;;;;6219206;23;19936;-91
2023/04/06 16:22:29;;;;;;;;;;;;;;;;;;6215456;23;19944;-88
2023/04/06 16:27:48;;;;;;;;;;;;;;;;;;6194648;23;19926;-88
2023/04/06 16:30:16;;;;;;;;;;;;;;;;;;6203502;23;19924;-88
2023/04/06 16:32:45;;;;;;;;;;;;;;;;;;6194205;23;19927;-88
2023/04/06 16:35:17;;;;;;;;;;;;;;;;;;6218815;23;19920;-88
2023/04/06 16:37:45;;;;;;;;;;;;;;;;;;6203949;23;19920;-88
2023/04/06 16:40:13;;;;;;;;;;;;;;;;;;6214543;23;20265;-88
2023/04/06 16:42:42;;;;;;;;;;;;;;;;;;6173354;23;19926;-88
2023/04/06 16:45:10;;;;;;;;;;;;;;;;;;6224897;23;19926;-89
2023/04/06 16:47:37;;;;;;;;;;;;;;;;;;6226677;23;19920;-90
2023/04/06 16:50:07;;;;;;;;;;;;;;;;;;6252326;23;19920;-90
2023/04/06 16:52:37;;;;;;;;;;;;;;;;;;6199435;23;20227;-89
2023/04/06 16:55:09;;;;;;;;;;;;;;;;;;6198682;23;19972;-89
2023/04/06 16:57:36;;;;;;;;;;;;;;;;;;6234627;23;19927;-88
2023/04/06 17:00:06;;;;;;;;;;;;;;;;;;6199016;23;19926;-89
2023/04/06 17:02:35;;;;;;;;;;;;;;;;;;6197822;23;19933;-89
2023/04/06 17:05:02;;;;;;;;;;;;;;;;;;6197436;23;20365;-88
2023/04/06 17:07:35;;;;;;;;;;;;;;;;;;6224360;23;19920;-87
2023/04/06 17:10:06;;;;;;;;;;;;;;;;;;6203443;23;19920;-87
2023/04/06 17:12:41;;;;;;;;;;;;;;;;;;6205016;23;19919;-90
2023/04/06 17:15:16;;;;;;;;;;;;;;;;;;6213468;23;19923;-88
2023/04/06 17:17:43;;;;;;;;;;;;;;;;;;6203062;23;19923;-87
2023/04/06 17:20:10;;;;;;;;;;;;;;;;;;6194100;23;19924;-86
2023/04/06 17:22:38;;;;;;;;;;;;;;;;;;6194983;23;19924;-88
2023/04/06 17:25:08;;;;;;;;;;;;;;;;;;6220887;23;19930;-87
2023/04/06 17:27:35;;;;;;;;;;;;;;;;;;6197061;23;19919;-87
2023/04/06 17:30:05;;;;;;;;;;;;;;;;;;6220685;23;20256;-87
2023/04/06 17:32:33;;;;;;;;;;;;;;;;;;6222510;23;19919;-87
2023/04/06 17:35:00;;;;;;;;;;;;;;;;;;6221671;23;20357;-87
2023/04/06 17:37:27;;;;;;;;;;;;;;;;;;6197343;23;19919;-89
2023/04/06 17:39:57;;;;;;;;;;;;;;;;;;6198440;23;19924;-88
2023/04/06 17:42:26;;;;;;;;;;;;;;;;;;6194776;23;19927;-87
2023/04/06 17:44:58;;;;;;;;;;;;;;;;;;6198446;23;19919;-87
2023/04/06 17:47:30;;;;;;;;;;;;;;;;;;6197555;23;20495;-88
2023/04/06 17:49:58;;;;;;;;;;;;;;;;;;6218975;23;20336;-87
2023/04/06 17:52:25;;;;;;;;;;;;;;;;;;6217932;23;19919;-87
2023/04/06 17:54:53;;;;;;;;;;;;;;;;;;6249979;23;19920;-87
2023/04/06 17:57:20;;;;;;;;;;;;;;;;;;6193823;23;19939;-88
2023/04/06 17:59:52;;;;;;;;;;;;;;;;;;6194484;23;20374;-88
2023/04/06 18:02:20;;;;;;;;;;;;;;;;;;6195255;23;19919;-87
2023/04/06 18:04:51;;;;;;;;;;;;;;;;;;6194896;23;19920;-87
2023/04/06 18:07:18;;;;;;;;;;;;;;;;;;6193946;23;19919;-87
2023/04/06 18:09:48;;;;;;;;;;;;;;;;;;6193919;23;19927;-87
2023/04/06 18:12:15;;;;;;;;;;;;;;;;;;6219212;23;19927;-87
2023/04/06 18:14:44;;;;;;;;;;;;;;;;;;6192412;23;19928;-85
2023/04/06 18:17:15;;;;;;;;;;;;;;;;;;6219060;23;20263;-86
2023/04/06 18:19:42;;;;;;;;;;;;;;;;;;6194177;23;19930;-86
2023/04/06 18:22:12;;;;;;;;;;;;;;;;;;6221298;23;19920;-86
2023/04/06 18:24:39;;;;;;;;;;;;;;;;;;6219225;23;20459;-86
2023/04/06 18:27:06;;;;;;;;;;;;;;;;;;6220954;23;19919;-85
2023/04/06 18:29:34;;;;;;;;;;;;;;;;;;6193162;23;19930;-85
2023/04/06 18:32:02;;;;;;;;;;;;;;;;;;6194831;23;19920;-85
2023/04/06 18:34:30;;;;;;;;;;;;;;;;;;6219631;23;19926;-86
2023/04/06 18:36:58;;;;;;;;;;;;;;;;;;6196094;23;19923;-88
2023/04/06 18:39:26;;;;;;;;;;;;;;;;;;6195494;23;19926;-85
2023/04/06 18:41:53;;;;;;;;;;;;;;;;;;6194903;23;20365;-86
2023/04/06 18:44:20;;;;;;;;;;;;;;;;;;6218690;23;19919;-87
2023/04/06 18:46:47;;;;;;;;;;;;;;;;;;6220438;23;19928;-87
2023/04/06 18:49:14;;;;;;;;;;;;;;;;;;6195828;23;19919;-85
2023/04/06 18:51:43;;;;;;;;;;;;;;;;;;6220343;23;19943;-85
2023/04/06 18:54:10;;;;;;;;;;;;;;;;;;6196205;23;19920;-86
2023/04/06 18:56:39;;;;;;;;;;;;;;;;;;6220179;23;19923;-85
2023/04/06 18:59:06;;;;;;;;;;;;;;;;;;6197681;23;19923;-87
2023/04/06 19:01:33;;;;;;;;;;;;;;;;;;6230568;23;19919;-87
2023/04/06 19:04:00;;;;;;;;;;;;;;;;;;6220653;23;19926;-86
2023/04/06 19:06:30;;;;;;;;;;;;;;;;;;6233286;23;19950;-85
2023/04/06 19:09:03;;;;;;;;;;;;;;;;;;6222539;23;19935;-89
2023/04/06 19:11:32;;;;;;;;;;;;;;;;;;6232619;23;19919;-85
2023/04/06 19:14:00;;;;;;;;;;;;;;;;;;6196674;23;19919;-88
2023/04/06 19:16:27;;;;;;;;;;;;;;;;;;6221140;23;19926;-87
2023/04/06 19:18:58;;;;;;;;;;;;;;;;;;6248205;23;19926;-85
2023/04/06 19:21:26;;;;;;;;;;;;;;;;;;6230167;23;19927;-87
2023/04/06 19:23:54;;;;;;;;;;;;;;;;;;6196089;23;19920;-87
2023/04/06 19:26:22;;;;;;;;;;;;;;;;;;6232736;23;19943;-86
2023/04/06 19:28:50;;;;;;;;;;;;;;;;;;6198646;23;19919;-87
2023/04/06 19:31:18;;;;;;;;;;;;;;;;;;6197331;23;19919;-85
2023/04/06 19:33:45;;;;;;;;;;;;;;;;;;6194533;23;19920;-86
2023/04/06 19:36:17;;;;;;;;;;;;;;;;;;6196623;23;20319;-86
2023/04/06 19:38:45;;;;;;;;;;;;;;;;;;6231768;23;20263;-86
2023/04/06 19:41:12;;;;;;;;;;;;;;;;;;6221461;23;20371;-87
2023/04/06 19:43:41;;;;;;;;;;;;;;;;;;6195131;23;19930;-85
2023/04/06 19:46:09;;;;;;;;;;;;;;;;;;6194868;23;19924;-88
2023/04/06 19:48:36;;;;;;;;;;;;;;;;;;6220795;23;20252;-85
2023/04/06 19:51:03;;;;;;;;;;;;;;;;;;6195674;23;20270;-85
2023/04/06 19:53:38;;;;;;;;;;;;;;;;;;6231174;23;20274;-88
2023/04/06 19:56:05;;;;;;;;;;;;;;;;;;6230941;23;20671;-87
2023/04/06 19:58:50;;;;;;;;;;;;;;;;;;6196533;23;19924;-88
2023/04/06 20:01:20;;;;;;;;;;;;;;;;;;6196339;23;19920;-87
2023/04/06 20:03:47;;;;;;;;;;;;;;;;;;6222414;23;19926;-87
2023/04/06 20:06:15;;;;;;;;;;;;;;;;;;6221366;23;19926;-89
2023/04/06 20:08:44;;;;;;;;;;;;;;;;;;6196123;23;19926;-88
2023/04/06 20:11:12;;;;;;;;;;;;;;;;;;6220196;23;19926;-87
2023/04/06 20:13:40;;;;;;;;;;;;;;;;;;6220972;23;19919;-86
2023/04/06 20:16:14;;;;;;;;;;;;;;;;;;6247724;23;19923;-88
2023/04/06 20:18:43;;;;;;;;;;;;;;;;;;6197368;23;19920;-88
2023/04/06 20:21:12;;;;;;;;;;;;;;;;;;6230145;23;19923;-87
2023/04/06 20:23:40;;;;;;;;;;;;;;;;;;6222365;23;19920;-86
2023/04/06 20:26:08;;;;;;;;;;;;;;;;;;6195594;23;19920;-87
2023/04/06 20:28:35;;;;;;;;;;;;;;;;;;6195614;23;19920;-85
2023/04/06 20:31:03;;;;;;;;;;;;;;;;;;6194233;23;19920;-88
2023/04/06 20:33:31;;;;;;;;;;;;;;;;;;6170860;23;19919;-87
2023/04/06 20:36:02;;;;;;;;;;;;;;;;;;6222320;23;19934;-87
2023/04/06 20:38:29;;;;;;;;;;;;;;;;;;6223742;23;20263;-88
2023/04/06 20:40:58;;;;;;;;;;;;;;;;;;6199479;23;19920;-88
2023/04/06 20:43:27;;;;;;;;;;;;;;;;;;6199834;23;19920;-88
2023/04/06 20:45:57;;;;;;;;;;;;;;;;;;6201334;23;20397;-87
2023/04/06 20:48:25;;;;;;;;;;;;;;;;;;6202594;23;19926;-86
2023/04/06 20:50:54;;;;;;;;;;;;;;;;;;6227255;23;19926;-88
2023/04/06 20:53:21;;;;;;;;;;;;;;;;;;6226186;23;19953;-86
2023/04/06 20:55:48;;;;;;;;;;;;;;;;;;6225326;23;19920;-89
2023/04/06 20:58:19;;;;;;;;;;;;;;;;;;6200802;23;19919;-89
2023/04/06 21:00:49;;;;;;;;;;;;;;;;;;6226547;23;19939;-87
2023/04/06 21:03:16;;;;;;;;;;;;;;;;;;6200817;23;19920;-86
2023/04/06 21:05:53;;;;;;;;;;;;;;;;;;6227675;23;19926;-88
2023/04/06 21:08:22;;;;;;;;;;;;;;;;;;6201363;23;20417;-88
2023/04/06 21:10:58;;;;;;;;;;;;;;;;;;6262298;23;20267;-87
2023/04/06 21:13:25;;;;;;;;;;;;;;;;;;6200514;23;19920;-88
2023/04/06 21:15:53;;;;;;;;;;;;;;;;;;6235840;23;19920;-86
2023/04/06 21:18:20;;;;;;;;;;;;;;;;;;6228422;23;19929;-88
2023/04/06 21:20:47;;;;;;;;;;;;;;;;;;6229737;23;20250;-86
2023/04/06 21:23:15;;;;;;;;;;;;;;;;;;6227148;23;19920;-88
2023/04/06 21:25:43;;;;;;;;;;;;;;;;;;6199985;23;19943;-86
2023/04/06 21:28:11;;;;;;;;;;;;;;;;;;6224928;23;19920;-86
2023/04/06 21:30:38;;;;;;;;;;;;;;;;;;6200470;23;20266;-85
2023/04/06 21:33:08;;;;;;;;;;;;;;;;;;6225167;23;19930;-86
2023/04/06 21:35:38;;;;;;;;;;;;;;;;;;6224905;23;19928;-86
2023/04/06 21:38:05;;;;;;;;;;;;;;;;;;6199003;23;20716;-86
2023/04/06 21:40:35;;;;;;;;;;;;;;;;;;6225031;23;19920;-87
2023/04/06 21:43:06;;;;;;;;;;;;;;;;;;6199254;23;19919;-85
2023/04/06 21:45:33;;;;;;;;;;;;;;;;;;6223433;23;19925;-85
2023/04/06 21:48:03;;;;;;;;;;;;;;;;;;6198399;23;19920;-87
2023/04/06 21:50:32;;;;;;;;;;;;;;;;;;6200133;23;19924;-87
2023/04/06 21:53:04;;;;;;;;;;;;;;;;;;6200066;23;19929;-88
2023/04/06 21:55:31;;;;;;;;;;;;;;;;;;6227990;23;19920;-89
2023/04/06 21:58:02;;;;;;;;;;;;;;;;;;6224921;23;19919;-86
2023/04/06 22:00:33;;;;;;;;;;;;;;;;;;6174743;23;19930;-89
2023/04/06 22:03:00;;;;;;;;;;;;;;;;;;6225216;23;19924;-86
2023/04/06 22:05:29;;;;;;;;;;;;;;;;;;6224984;23;20389;-88
2023/04/06 22:07:57;;;;;;;;;;;;;;;;;;6252495;23;19920;-88
2023/04/06 22:10:26;;;;;;;;;;;;;;;;;;6199107;23;19925;-87
2023/04/06 22:12:54;;;;;;;;;;;;;;;;;;6224375;23;19925;-88
2023/04/06 22:15:21;;;;;;;;;;;;;;;;;;6222650;23;19919;-85
2023/04/06 22:17:52;;;;;;;;;;;;;;;;;;6202686;23;19926;-87
2023/04/06 22:20:21;;;;;;;;;;;;;;;;;;6248849;23;19919;-87
2023/04/06 22:22:49;;;;;;;;;;;;;;;;;;6248116;23;20355;-85
